sensor_id;sensor_type;location;lat;lon;timestamp;temperature;humidity
19970;DHT22;10146;47.754;9.566;2023-07-29T00:01:30;17.10;99.90
19970;DHT22;10146;47.754;9.566;2023-07-29T00:03:56;17.10;99.90
19970;DHT22;10146;47.754;9.566;2023-07-29T00:06:22;17.10;99.90
19970;DHT22;10146;47.754;9.566;2023-07-29T00:08:47;17.10;99.90
19970;DHT22;10146;47.754;9.566;2023-07-29T00:11:13;17.20;99.90
19970;DHT22;10146;47.754;9.566;2023-07-29T00:13:38;17.20;99.90
19970;DHT22;10146;47.754;9.566;2023-07-29T00:16:04;17.20;99.90
19970;DHT22;10146;47.754;9.566;2023-07-29T00:18:30;17.20;99.90
19970;DHT22;10146;47.754;9.566;2023-07-29T00:20:56;17.20;99.90
19970;DHT22;10146;47.754;9.566;2023-07-29T00:23:23;17.20;99.90
19970;DHT22;10146;47.754;9.566;2023-07-29T00:25:48;17.20;99.90
19970;DHT22;10146;47.754;9.566;2023-07-29T00:28:14;17.20;99.90
19970;DHT22;10146;47.754;9.566;2023-07-29T00:30:39;17.30;99.90
19970;DHT22;10146;47.754;9.566;2023-07-29T00:33:05;17.30;99.90
19970;DHT22;10146;47.754;9.566;2023-07-29T00:35:30;17.30;99.90
19970;DHT22;10146;47.754;9.566;2023-07-29T00:37:56;17.30;99.90
19970;DHT22;10146;47.754;9.566;2023-07-29T00:40:22;17.30;99.90
19970;DHT22;10146;47.754;9.566;2023-07-29T00:42:49;17.20;99.90
19970;DHT22;10146;47.754;9.566;2023-07-29T00:45:15;17.20;99.90
19970;DHT22;10146;47.754;9.566;2023-07-29T00:47:42;17.30;99.90
19970;DHT22;10146;47.754;9.566;2023-07-29T00:50:09;17.20;99.90
19970;DHT22;10146;47.754;9.566;2023-07-29T00:52:36;17.30;99.90
19970;DHT22;10146;47.754;9.566;2023-07-29T00:55:02;17.30;99.90
19970;DHT22;10146;47.754;9.566;2023-07-29T00:57:30;17.20;99.90
19970;DHT22;10146;47.754;9.566;2023-07-29T00:59:56;17.20;99.90
19970;DHT22;10146;47.754;9.566;2023-07-29T01:02:22;17.20;99.90
19970;DHT22;10146;47.754;9.566;2023-07-29T01:04:54;17.20;99.90
19970;DHT22;10146;47.754;9.566;2023-07-29T01:13:44;17.10;99.90
19970;DHT22;10146;47.754;9.566;2023-07-29T01:16:23;17.20;99.90
19970;DHT22;10146;47.754;9.566;2023-07-29T01:18:52;17.20;99.90
19970;DHT22;10146;47.754;9.566;2023-07-29T01:21:19;17.10;99.90
19970;DHT22;10146;47.754;9.566;2023-07-29T01:23:46;17.10;99.90
19970;DHT22;10146;47.754;9.566;2023-07-29T01:26:12;17.10;99.90
19970;DHT22;10146;47.754;9.566;2023-07-29T01:28:38;17.10;99.90
19970;DHT22;10146;47.754;9.566;2023-07-29T01:31:14;17.10;99.90
19970;DHT22;10146;47.754;9.566;2023-07-29T01:33:53;17.10;99.90
19970;DHT22;10146;47.754;9.566;2023-07-29T01:36:23;17.10;99.90
19970;DHT22;10146;47.754;9.566;2023-07-29T01:38:51;17.10;99.90
19970;DHT22;10146;47.754;9.566;2023-07-29T01:41:19;17.10;99.90
19970;DHT22;10146;47.754;9.566;2023-07-29T01:43:46;17.10;99.90
19970;DHT22;10146;47.754;9.566;2023-07-29T01:46:13;17.10;99.90
19970;DHT22;10146;47.754;9.566;2023-07-29T01:48:39;17.00;99.90
19970;DHT22;10146;47.754;9.566;2023-07-29T01:51:06;17.00;99.90
19970;DHT22;10146;47.754;9.566;2023-07-29T01:53:32;17.00;99.90
19970;DHT22;10146;47.754;9.566;2023-07-29T01:55:58;17.00;99.90
19970;DHT22;10146;47.754;9.566;2023-07-29T01:58:24;17.00;99.90
19970;DHT22;10146;47.754;9.566;2023-07-29T02:00:49;17.00;99.90
19970;DHT22;10146;47.754;9.566;2023-07-29T02:03:15;17.00;99.90
19970;DHT22;10146;47.754;9.566;2023-07-29T02:05:41;17.00;99.90
19970;DHT22;10146;47.754;9.566;2023-07-29T02:08:09;16.90;99.90
19970;DHT22;10146;47.754;9.566;2023-07-29T02:10:35;16.90;99.90
19970;DHT22;10146;47.754;9.566;2023-07-29T02:13:00;16.90;99.90
19970;DHT22;10146;47.754;9.566;2023-07-29T02:15:26;16.90;99.90
19970;DHT22;10146;47.754;9.566;2023-07-29T02:17:51;16.90;99.90
19970;DHT22;10146;47.754;9.566;2023-07-29T02:20:17;16.80;99.90
19970;DHT22;10146;47.754;9.566;2023-07-29T02:22:43;16.80;99.90
19970;DHT22;10146;47.754;9.566;2023-07-29T02:25:08;16.90;99.90
19970;DHT22;10146;47.754;9.566;2023-07-29T02:27:35;16.80;99.90
19970;DHT22;10146;47.754;9.566;2023-07-29T02:30:01;16.80;99.90
19970;DHT22;10146;47.754;9.566;2023-07-29T02:32:26;16.80;99.90
19970;DHT22;10146;47.754;9.566;2023-07-29T02:34:52;16.80;99.90
19970;DHT22;10146;47.754;9.566;2023-07-29T02:37:18;16.80;99.90
19970;DHT22;10146;47.754;9.566;2023-07-29T02:39:43;16.80;99.90
19970;DHT22;10146;47.754;9.566;2023-07-29T02:42:09;16.70;99.90
19970;DHT22;10146;47.754;9.566;2023-07-29T02:44:34;16.70;99.90
19970;DHT22;10146;47.754;9.566;2023-07-29T02:47:00;16.70;99.90
19970;DHT22;10146;47.754;9.566;2023-07-29T02:49:26;16.60;99.90
19970;DHT22;10146;47.754;9.566;2023-07-29T02:51:51;16.60;99.90
19970;DHT22;10146;47.754;9.566;2023-07-29T02:54:17;16.60;99.90
19970;DHT22;10146;47.754;9.566;2023-07-29T02:56:42;16.60;99.90
19970;DHT22;10146;47.754;9.566;2023-07-29T02:59:08;16.60;99.90
19970;DHT22;10146;47.754;9.566;2023-07-29T03:01:34;16.50;99.90
19970;DHT22;10146;47.754;9.566;2023-07-29T03:03:59;16.50;99.90
19970;DHT22;10146;47.754;9.566;2023-07-29T03:06:25;16.50;99.90
19970;DHT22;10146;47.754;9.566;2023-07-29T03:08:51;16.50;99.90
19970;DHT22;10146;47.754;9.566;2023-07-29T03:11:16;16.50;99.90
19970;DHT22;10146;47.754;9.566;2023-07-29T03:13:43;16.60;99.90
19970;DHT22;10146;47.754;9.566;2023-07-29T03:16:13;16.70;99.90
19970;DHT22;10146;47.754;9.566;2023-07-29T03:18:40;16.80;99.90
19970;DHT22;10146;47.754;9.566;2023-07-29T03:21:07;16.80;99.90
19970;DHT22;10146;47.754;9.566;2023-07-29T03:23:33;16.80;99.90
19970;DHT22;10146;47.754;9.566;2023-07-29T03:26:00;16.80;99.90
19970;DHT22;10146;47.754;9.566;2023-07-29T03:28:28;16.90;99.90
19970;DHT22;10146;47.754;9.566;2023-07-29T03:30:54;16.90;99.90
19970;DHT22;10146;47.754;9.566;2023-07-29T03:33:20;17.00;99.90
19970;DHT22;10146;47.754;9.566;2023-07-29T03:35:45;16.90;99.90
19970;DHT22;10146;47.754;9.566;2023-07-29T03:38:11;16.90;99.90
19970;DHT22;10146;47.754;9.566;2023-07-29T03:40:41;16.90;99.90
19970;DHT22;10146;47.754;9.566;2023-07-29T03:43:07;16.90;99.90
19970;DHT22;10146;47.754;9.566;2023-07-29T03:45:35;16.80;99.90
19970;DHT22;10146;47.754;9.566;2023-07-29T03:48:01;16.80;99.90
19970;DHT22;10146;47.754;9.566;2023-07-29T03:50:27;16.80;99.90
19970;DHT22;10146;47.754;9.566;2023-07-29T03:52:53;16.80;99.90
19970;DHT22;10146;47.754;9.566;2023-07-29T03:55:18;16.70;99.90
19970;DHT22;10146;47.754;9.566;2023-07-29T03:57:44;16.70;99.90
19970;DHT22;10146;47.754;9.566;2023-07-29T04:00:10;16.70;99.90
19970;DHT22;10146;47.754;9.566;2023-07-29T04:02:36;16.70;99.90
19970;DHT22;10146;47.754;9.566;2023-07-29T04:05:05;16.70;99.90
19970;DHT22;10146;47.754;9.566;2023-07-29T04:07:31;16.70;99.90
19970;DHT22;10146;47.754;9.566;2023-07-29T04:09:57;16.70;99.90
19970;DHT22;10146;47.754;9.566;2023-07-29T04:12:23;16.70;99.90
19970;DHT22;10146;47.754;9.566;2023-07-29T04:14:49;16.70;99.90
19970;DHT22;10146;47.754;9.566;2023-07-29T04:17:15;16.70;99.90
19970;DHT22;10146;47.754;9.566;2023-07-29T04:19:40;16.80;99.90
19970;DHT22;10146;47.754;9.566;2023-07-29T04:22:06;16.70;99.90
19970;DHT22;10146;47.754;9.566;2023-07-29T04:24:32;16.70;99.90
19970;DHT22;10146;47.754;9.566;2023-07-29T04:26:57;16.70;99.90
19970;DHT22;10146;47.754;9.566;2023-07-29T04:29:23;16.70;99.90
19970;DHT22;10146;47.754;9.566;2023-07-29T04:31:50;16.80;99.90
19970;DHT22;10146;47.754;9.566;2023-07-29T04:34:15;16.80;99.90
19970;DHT22;10146;47.754;9.566;2023-07-29T04:36:41;16.90;99.90
19970;DHT22;10146;47.754;9.566;2023-07-29T04:39:06;16.90;99.90
19970;DHT22;10146;47.754;9.566;2023-07-29T04:41:33;16.90;99.90
19970;DHT22;10146;47.754;9.566;2023-07-29T04:43:58;16.90;99.90
19970;DHT22;10146;47.754;9.566;2023-07-29T04:46:24;16.90;99.90
19970;DHT22;10146;47.754;9.566;2023-07-29T04:48:49;16.90;99.90
19970;DHT22;10146;47.754;9.566;2023-07-29T04:51:15;16.90;99.90
19970;DHT22;10146;47.754;9.566;2023-07-29T04:53:41;16.90;99.90
19970;DHT22;10146;47.754;9.566;2023-07-29T04:56:06;16.90;99.90
19970;DHT22;10146;47.754;9.566;2023-07-29T04:58:32;17.00;99.90
19970;DHT22;10146;47.754;9.566;2023-07-29T05:01:00;17.00;99.90
19970;DHT22;10146;47.754;9.566;2023-07-29T05:03:26;17.00;99.90
19970;DHT22;10146;47.754;9.566;2023-07-29T05:05:51;17.00;99.90
19970;DHT22;10146;47.754;9.566;2023-07-29T05:08:19;17.10;99.90
19970;DHT22;10146;47.754;9.566;2023-07-29T05:10:48;17.10;99.90
19970;DHT22;10146;47.754;9.566;2023-07-29T05:13:13;17.10;99.90
19970;DHT22;10146;47.754;9.566;2023-07-29T05:15:39;17.10;99.90
19970;DHT22;10146;47.754;9.566;2023-07-29T05:18:04;17.10;99.90
19970;DHT22;10146;47.754;9.566;2023-07-29T05:20:30;17.20;99.90
19970;DHT22;10146;47.754;9.566;2023-07-29T05:22:56;17.20;99.90
19970;DHT22;10146;47.754;9.566;2023-07-29T05:25:21;17.20;99.90
19970;DHT22;10146;47.754;9.566;2023-07-29T05:27:47;17.30;99.90
19970;DHT22;10146;47.754;9.566;2023-07-29T05:30:12;17.30;99.90
19970;DHT22;10146;47.754;9.566;2023-07-29T05:32:38;17.20;99.90
19970;DHT22;10146;47.754;9.566;2023-07-29T05:35:04;17.20;99.90
19970;DHT22;10146;47.754;9.566;2023-07-29T05:37:29;17.30;99.90
19970;DHT22;10146;47.754;9.566;2023-07-29T05:39:55;17.40;99.90
19970;DHT22;10146;47.754;9.566;2023-07-29T05:42:21;17.40;99.90
19970;DHT22;10146;47.754;9.566;2023-07-29T05:44:46;17.50;99.90
19970;DHT22;10146;47.754;9.566;2023-07-29T05:47:12;17.60;99.90
19970;DHT22;10146;47.754;9.566;2023-07-29T05:49:37;17.70;99.90
19970;DHT22;10146;47.754;9.566;2023-07-29T05:52:03;17.80;99.90
19970;DHT22;10146;47.754;9.566;2023-07-29T05:54:29;17.80;99.90
19970;DHT22;10146;47.754;9.566;2023-07-29T05:56:54;17.80;99.90
19970;DHT22;10146;47.754;9.566;2023-07-29T05:59:20;17.80;99.90
19970;DHT22;10146;47.754;9.566;2023-07-29T06:01:45;17.90;99.90
19970;DHT22;10146;47.754;9.566;2023-07-29T06:04:11;17.90;99.90
19970;DHT22;10146;47.754;9.566;2023-07-29T06:06:36;18.00;99.90
19970;DHT22;10146;47.754;9.566;2023-07-29T06:09:02;18.00;99.90
19970;DHT22;10146;47.754;9.566;2023-07-29T06:11:28;18.10;99.90
19970;DHT22;10146;47.754;9.566;2023-07-29T06:13:53;18.10;99.90
19970;DHT22;10146;47.754;9.566;2023-07-29T06:16:19;18.10;99.90
19970;DHT22;10146;47.754;9.566;2023-07-29T06:18:45;18.20;99.90
19970;DHT22;10146;47.754;9.566;2023-07-29T06:21:10;18.20;99.90
19970;DHT22;10146;47.754;9.566;2023-07-29T06:23:42;18.20;99.90
19970;DHT22;10146;47.754;9.566;2023-07-29T06:26:08;18.20;99.90
19970;DHT22;10146;47.754;9.566;2023-07-29T06:28:34;18.30;99.90
19970;DHT22;10146;47.754;9.566;2023-07-29T06:30:59;18.40;99.90
19970;DHT22;10146;47.754;9.566;2023-07-29T06:33:25;18.50;99.90
19970;DHT22;10146;47.754;9.566;2023-07-29T06:35:50;18.50;99.90
19970;DHT22;10146;47.754;9.566;2023-07-29T06:38:16;18.70;99.90
19970;DHT22;10146;47.754;9.566;2023-07-29T06:40:49;18.90;99.90
19970;DHT22;10146;47.754;9.566;2023-07-29T06:43:15;19.10;99.90
19970;DHT22;10146;47.754;9.566;2023-07-29T06:45:41;19.40;99.90
19970;DHT22;10146;47.754;9.566;2023-07-29T06:48:07;19.60;99.90
19970;DHT22;10146;47.754;9.566;2023-07-29T06:50:32;19.80;99.90
19970;DHT22;10146;47.754;9.566;2023-07-29T06:52:58;19.80;99.90
19970;DHT22;10146;47.754;9.566;2023-07-29T06:55:24;19.80;99.90
19970;DHT22;10146;47.754;9.566;2023-07-29T06:57:49;19.80;99.90
19970;DHT22;10146;47.754;9.566;2023-07-29T07:00:15;19.70;99.90
19970;DHT22;10146;47.754;9.566;2023-07-29T07:02:40;19.60;99.90
19970;DHT22;10146;47.754;9.566;2023-07-29T07:05:07;19.60;99.90
19970;DHT22;10146;47.754;9.566;2023-07-29T07:07:32;19.60;99.90
19970;DHT22;10146;47.754;9.566;2023-07-29T07:09:58;19.70;99.90
19970;DHT22;10146;47.754;9.566;2023-07-29T07:12:24;19.70;99.90
19970;DHT22;10146;47.754;9.566;2023-07-29T07:14:50;19.80;99.90
19970;DHT22;10146;47.754;9.566;2023-07-29T07:17:15;19.80;99.90
19970;DHT22;10146;47.754;9.566;2023-07-29T07:19:41;19.90;99.90
19970;DHT22;10146;47.754;9.566;2023-07-29T07:22:07;20.00;99.90
19970;DHT22;10146;47.754;9.566;2023-07-29T07:24:32;20.00;99.90
19970;DHT22;10146;47.754;9.566;2023-07-29T07:26:58;20.20;99.90
19970;DHT22;10146;47.754;9.566;2023-07-29T07:29:24;20.30;99.90
19970;DHT22;10146;47.754;9.566;2023-07-29T07:31:53;20.50;99.90
19970;DHT22;10146;47.754;9.566;2023-07-29T07:34:19;20.70;99.90
19970;DHT22;10146;47.754;9.566;2023-07-29T07:36:45;20.90;99.90
19970;DHT22;10146;47.754;9.566;2023-07-29T07:39:11;20.90;99.90
19970;DHT22;10146;47.754;9.566;2023-07-29T07:41:36;20.90;99.90
19970;DHT22;10146;47.754;9.566;2023-07-29T07:44:02;20.90;99.90
19970;DHT22;10146;47.754;9.566;2023-07-29T07:46:28;20.90;99.90
19970;DHT22;10146;47.754;9.566;2023-07-29T07:48:54;20.90;99.90
19970;DHT22;10146;47.754;9.566;2023-07-29T07:51:20;21.00;99.90
19970;DHT22;10146;47.754;9.566;2023-07-29T07:53:45;21.10;99.90
19970;DHT22;10146;47.754;9.566;2023-07-29T07:56:11;21.20;99.90
19970;DHT22;10146;47.754;9.566;2023-07-29T07:58:37;21.30;99.90
19970;DHT22;10146;47.754;9.566;2023-07-29T08:01:07;21.30;99.90
19970;DHT22;10146;47.754;9.566;2023-07-29T08:03:34;21.30;99.90
19970;DHT22;10146;47.754;9.566;2023-07-29T08:06:00;21.30;99.90
19970;DHT22;10146;47.754;9.566;2023-07-29T08:08:26;21.40;99.90
19970;DHT22;10146;47.754;9.566;2023-07-29T08:10:53;21.50;99.90
19970;DHT22;10146;47.754;9.566;2023-07-29T08:13:23;21.70;99.90
19970;DHT22;10146;47.754;9.566;2023-07-29T08:15:51;21.80;99.90
19970;DHT22;10146;47.754;9.566;2023-07-29T08:18:17;22.00;99.90
19970;DHT22;10146;47.754;9.566;2023-07-29T08:20:56;22.20;99.90
19970;DHT22;10146;47.754;9.566;2023-07-29T08:23:28;22.20;99.90
19970;DHT22;10146;47.754;9.566;2023-07-29T08:25:55;22.20;99.90
19970;DHT22;10146;47.754;9.566;2023-07-29T08:28:22;22.20;99.90
19970;DHT22;10146;47.754;9.566;2023-07-29T08:30:48;22.20;99.90
19970;DHT22;10146;47.754;9.566;2023-07-29T08:33:14;22.30;99.90
19970;DHT22;10146;47.754;9.566;2023-07-29T08:35:40;22.50;99.90
19970;DHT22;10146;47.754;9.566;2023-07-29T08:38:05;22.50;99.90
19970;DHT22;10146;47.754;9.566;2023-07-29T08:40:32;22.60;99.90
19970;DHT22;10146;47.754;9.566;2023-07-29T08:43:04;22.70;99.90
19970;DHT22;10146;47.754;9.566;2023-07-29T08:45:35;23.00;99.90
19970;DHT22;10146;47.754;9.566;2023-07-29T08:48:07;23.10;99.90
19970;DHT22;10146;47.754;9.566;2023-07-29T08:50:34;23.00;99.90
19970;DHT22;10146;47.754;9.566;2023-07-29T08:53:05;23.10;99.90
19970;DHT22;10146;47.754;9.566;2023-07-29T08:55:32;23.00;99.90
19970;DHT22;10146;47.754;9.566;2023-07-29T08:57:59;23.00;99.90
19970;DHT22;10146;47.754;9.566;2023-07-29T09:00:25;23.00;99.90
19970;DHT22;10146;47.754;9.566;2023-07-29T09:02:51;22.90;99.90
19970;DHT22;10146;47.754;9.566;2023-07-29T09:05:17;23.00;99.90
19970;DHT22;10146;47.754;9.566;2023-07-29T09:07:44;23.10;99.90
19970;DHT22;10146;47.754;9.566;2023-07-29T09:10:10;23.30;99.90
19970;DHT22;10146;47.754;9.566;2023-07-29T09:12:39;23.30;99.90
19970;DHT22;10146;47.754;9.566;2023-07-29T09:15:07;23.30;99.90
19970;DHT22;10146;47.754;9.566;2023-07-29T09:17:33;23.20;99.90
19970;DHT22;10146;47.754;9.566;2023-07-29T09:19:59;23.10;99.90
19970;DHT22;10146;47.754;9.566;2023-07-29T09:22:27;23.20;99.90
19970;DHT22;10146;47.754;9.566;2023-07-29T09:24:53;23.30;99.90
19970;DHT22;10146;47.754;9.566;2023-07-29T09:27:28;23.40;99.90
19970;DHT22;10146;47.754;9.566;2023-07-29T09:29:57;23.30;99.90
19970;DHT22;10146;47.754;9.566;2023-07-29T09:32:24;23.30;99.90
19970;DHT22;10146;47.754;9.566;2023-07-29T09:34:50;23.30;99.90
19970;DHT22;10146;47.754;9.566;2023-07-29T09:37:24;23.30;99.90
19970;DHT22;10146;47.754;9.566;2023-07-29T09:39:50;23.30;99.90
19970;DHT22;10146;47.754;9.566;2023-07-29T09:42:20;23.40;99.90
19970;DHT22;10146;47.754;9.566;2023-07-29T09:44:47;23.50;99.90
19970;DHT22;10146;47.754;9.566;2023-07-29T09:47:23;23.60;99.90
19970;DHT22;10146;47.754;9.566;2023-07-29T09:49:51;23.70;99.90
19970;DHT22;10146;47.754;9.566;2023-07-29T09:52:18;23.80;99.90
19970;DHT22;10146;47.754;9.566;2023-07-29T09:54:44;24.00;99.90
19970;DHT22;10146;47.754;9.566;2023-07-29T09:57:11;24.10;99.90
19970;DHT22;10146;47.754;9.566;2023-07-29T09:59:38;24.00;99.90
19970;DHT22;10146;47.754;9.566;2023-07-29T10:02:04;24.00;99.90
19970;DHT22;10146;47.754;9.566;2023-07-29T10:04:30;23.90;99.90
19970;DHT22;10146;47.754;9.566;2023-07-29T10:06:56;23.90;99.90
19970;DHT22;10146;47.754;9.566;2023-07-29T10:09:23;23.90;99.90
19970;DHT22;10146;47.754;9.566;2023-07-29T10:11:49;24.00;99.90
19970;DHT22;10146;47.754;9.566;2023-07-29T10:14:16;24.10;99.90
19970;DHT22;10146;47.754;9.566;2023-07-29T10:16:43;24.10;99.90
19970;DHT22;10146;47.754;9.566;2023-07-29T10:19:12;24.30;99.90
19970;DHT22;10146;47.754;9.566;2023-07-29T10:21:44;24.40;99.90
19970;DHT22;10146;47.754;9.566;2023-07-29T10:24:15;24.60;99.90
19970;DHT22;10146;47.754;9.566;2023-07-29T10:26:45;24.90;99.90
19970;DHT22;10146;47.754;9.566;2023-07-29T10:29:13;25.20;99.90
19970;DHT22;10146;47.754;9.566;2023-07-29T10:31:43;25.40;99.90
19970;DHT22;10146;47.754;9.566;2023-07-29T10:34:08;25.30;99.90
19970;DHT22;10146;47.754;9.566;2023-07-29T10:36:35;25.30;99.90
19970;DHT22;10146;47.754;9.566;2023-07-29T10:39:01;25.40;99.90
19970;DHT22;10146;47.754;9.566;2023-07-29T10:42:02;25.60;99.90
19970;DHT22;10146;47.754;9.566;2023-07-29T10:47:19;26.30;99.90
19970;DHT22;10146;47.754;9.566;2023-07-29T10:49:54;26.70;99.90
19970;DHT22;10146;47.754;9.566;2023-07-29T10:52:30;26.90;99.90
19970;DHT22;10146;47.754;9.566;2023-07-29T10:54:56;26.70;99.90
19970;DHT22;10146;47.754;9.566;2023-07-29T10:57:33;26.50;99.90
19970;DHT22;10146;47.754;9.566;2023-07-29T11:00:00;26.20;99.90
19970;DHT22;10146;47.754;9.566;2023-07-29T11:02:37;26.20;99.90
19970;DHT22;10146;47.754;9.566;2023-07-29T11:05:16;26.30;99.90
19970;DHT22;10146;47.754;9.566;2023-07-29T11:07:46;26.50;99.90
19970;DHT22;10146;47.754;9.566;2023-07-29T11:10:13;26.70;99.90
19970;DHT22;10146;47.754;9.566;2023-07-29T11:12:49;26.90;99.90
19970;DHT22;10146;47.754;9.566;2023-07-29T11:15:27;26.70;99.90
19970;DHT22;10146;47.754;9.566;2023-07-29T11:17:58;26.50;99.90
19970;DHT22;10146;47.754;9.566;2023-07-29T11:20:26;26.50;99.90
19970;DHT22;10146;47.754;9.566;2023-07-29T11:22:54;26.50;99.90
19970;DHT22;10146;47.754;9.566;2023-07-29T11:25:21;26.50;99.90
19970;DHT22;10146;47.754;9.566;2023-07-29T11:27:47;26.70;99.90
19970;DHT22;10146;47.754;9.566;2023-07-29T11:30:14;26.80;99.90
19970;DHT22;10146;47.754;9.566;2023-07-29T11:32:42;26.90;99.90
19970;DHT22;10146;47.754;9.566;2023-07-29T11:35:13;27.10;99.90
19970;DHT22;10146;47.754;9.566;2023-07-29T11:37:41;27.30;99.90
19970;DHT22;10146;47.754;9.566;2023-07-29T11:40:07;27.30;99.90
19970;DHT22;10146;47.754;9.566;2023-07-29T11:42:36;27.40;99.90
19970;DHT22;10146;47.754;9.566;2023-07-29T11:45:03;27.50;99.90
19970;DHT22;10146;47.754;9.566;2023-07-29T11:47:31;27.60;99.90
19970;DHT22;10146;47.754;9.566;2023-07-29T11:50:00;27.50;99.90
19970;DHT22;10146;47.754;9.566;2023-07-29T11:52:27;27.10;99.90
19970;DHT22;10146;47.754;9.566;2023-07-29T11:54:53;27.20;99.90
19970;DHT22;10146;47.754;9.566;2023-07-29T11:57:20;27.30;99.90
19970;DHT22;10146;47.754;9.566;2023-07-29T11:59:46;27.20;99.90
19970;DHT22;10146;47.754;9.566;2023-07-29T12:02:16;27.20;99.90
19970;DHT22;10146;47.754;9.566;2023-07-29T12:04:44;27.10;99.90
19970;DHT22;10146;47.754;9.566;2023-07-29T12:07:10;27.10;99.90
19970;DHT22;10146;47.754;9.566;2023-07-29T12:09:36;27.20;99.90
19970;DHT22;10146;47.754;9.566;2023-07-29T12:12:04;27.30;99.90
19970;DHT22;10146;47.754;9.566;2023-07-29T12:14:30;27.40;99.90
19970;DHT22;10146;47.754;9.566;2023-07-29T12:16:55;27.60;99.90
19970;DHT22;10146;47.754;9.566;2023-07-29T12:19:21;27.50;99.90
19970;DHT22;10146;47.754;9.566;2023-07-29T12:21:50;27.40;99.90
19970;DHT22;10146;47.754;9.566;2023-07-29T12:24:16;27.50;99.90
19970;DHT22;10146;47.754;9.566;2023-07-29T12:26:42;27.50;99.90
19970;DHT22;10146;47.754;9.566;2023-07-29T12:29:15;27.40;99.90
19970;DHT22;10146;47.754;9.566;2023-07-29T12:31:41;27.10;99.90
19970;DHT22;10146;47.754;9.566;2023-07-29T12:34:07;26.90;99.90
19970;DHT22;10146;47.754;9.566;2023-07-29T12:36:49;26.70;99.90
19970;DHT22;10146;47.754;9.566;2023-07-29T12:39:18;26.50;99.90
19970;DHT22;10146;47.754;9.566;2023-07-29T12:41:45;26.40;99.90
19970;DHT22;10146;47.754;9.566;2023-07-29T12:44:10;26.20;99.90
19970;DHT22;10146;47.754;9.566;2023-07-29T12:46:36;26.20;99.90
19970;DHT22;10146;47.754;9.566;2023-07-29T12:49:02;26.20;99.90
19970;DHT22;10146;47.754;9.566;2023-07-29T12:51:27;26.10;99.90
19970;DHT22;10146;47.754;9.566;2023-07-29T12:53:54;25.90;99.90
19970;DHT22;10146;47.754;9.566;2023-07-29T12:56:19;25.70;99.90
19970;DHT22;10146;47.754;9.566;2023-07-29T12:58:45;25.50;99.90
19970;DHT22;10146;47.754;9.566;2023-07-29T13:01:11;25.30;99.90
19970;DHT22;10146;47.754;9.566;2023-07-29T13:03:43;25.20;99.90
19970;DHT22;10146;47.754;9.566;2023-07-29T13:06:08;25.10;99.90
19970;DHT22;10146;47.754;9.566;2023-07-29T13:08:34;25.10;99.90
19970;DHT22;10146;47.754;9.566;2023-07-29T13:11:00;24.90;99.90
19970;DHT22;10146;47.754;9.566;2023-07-29T13:13:25;24.80;99.90
19970;DHT22;10146;47.754;9.566;2023-07-29T13:15:51;24.80;99.90
19970;DHT22;10146;47.754;9.566;2023-07-29T13:18:18;24.60;99.90
19970;DHT22;10146;47.754;9.566;2023-07-29T13:20:43;24.60;99.90
19970;DHT22;10146;47.754;9.566;2023-07-29T13:23:09;24.40;99.90
19970;DHT22;10146;47.754;9.566;2023-07-29T13:25:34;24.10;99.90
19970;DHT22;10146;47.754;9.566;2023-07-29T13:28:00;24.00;99.90
19970;DHT22;10146;47.754;9.566;2023-07-29T13:30:25;23.80;99.90
19970;DHT22;10146;47.754;9.566;2023-07-29T13:32:51;23.70;99.90
19970;DHT22;10146;47.754;9.566;2023-07-29T13:35:17;23.60;99.90
19970;DHT22;10146;47.754;9.566;2023-07-29T13:37:42;23.50;99.90
19970;DHT22;10146;47.754;9.566;2023-07-29T13:40:08;23.40;99.90
19970;DHT22;10146;47.754;9.566;2023-07-29T13:42:33;23.30;99.90
19970;DHT22;10146;47.754;9.566;2023-07-29T13:45:00;23.20;99.90
19970;DHT22;10146;47.754;9.566;2023-07-29T13:47:25;23.10;99.90
19970;DHT22;10146;47.754;9.566;2023-07-29T13:49:51;23.00;99.90
19970;DHT22;10146;47.754;9.566;2023-07-29T13:52:16;22.80;99.90
19970;DHT22;10146;47.754;9.566;2023-07-29T13:54:42;22.80;99.90
19970;DHT22;10146;47.754;9.566;2023-07-29T13:57:07;22.60;99.90
19970;DHT22;10146;47.754;9.566;2023-07-29T13:59:35;22.50;99.90
19970;DHT22;10146;47.754;9.566;2023-07-29T14:02:04;22.40;99.90
19970;DHT22;10146;47.754;9.566;2023-07-29T14:04:30;22.30;99.90
19970;DHT22;10146;47.754;9.566;2023-07-29T14:06:55;22.20;99.90
19970;DHT22;10146;47.754;9.566;2023-07-29T14:09:24;22.10;99.90
19970;DHT22;10146;47.754;9.566;2023-07-29T14:11:50;22.00;99.90
19970;DHT22;10146;47.754;9.566;2023-07-29T14:14:15;21.90;99.90
19970;DHT22;10146;47.754;9.566;2023-07-29T14:16:41;21.80;99.90
19970;DHT22;10146;47.754;9.566;2023-07-29T14:19:07;21.70;99.90
19970;DHT22;10146;47.754;9.566;2023-07-29T14:21:32;21.60;99.90
19970;DHT22;10146;47.754;9.566;2023-07-29T14:23:58;21.50;99.90
19970;DHT22;10146;47.754;9.566;2023-07-29T14:26:23;21.30;99.90
19970;DHT22;10146;47.754;9.566;2023-07-29T14:28:49;21.20;99.90
19970;DHT22;10146;47.754;9.566;2023-07-29T14:31:16;21.20;99.90
19970;DHT22;10146;47.754;9.566;2023-07-29T14:33:45;21.30;99.90
19970;DHT22;10146;47.754;9.566;2023-07-29T14:36:11;21.30;99.90
19970;DHT22;10146;47.754;9.566;2023-07-29T14:38:37;21.20;99.90
19970;DHT22;10146;47.754;9.566;2023-07-29T14:41:03;21.10;99.90
19970;DHT22;10146;47.754;9.566;2023-07-29T14:43:30;21.20;99.90
19970;DHT22;10146;47.754;9.566;2023-07-29T14:45:55;21.20;99.90
19970;DHT22;10146;47.754;9.566;2023-07-29T14:48:21;21.20;99.90
19970;DHT22;10146;47.754;9.566;2023-07-29T14:50:47;21.20;99.90
19970;DHT22;10146;47.754;9.566;2023-07-29T14:53:13;21.10;99.90
19970;DHT22;10146;47.754;9.566;2023-07-29T14:55:38;21.00;99.90
19970;DHT22;10146;47.754;9.566;2023-07-29T14:58:04;21.00;99.90
19970;DHT22;10146;47.754;9.566;2023-07-29T15:00:29;21.10;99.90
19970;DHT22;10146;47.754;9.566;2023-07-29T15:02:55;21.20;99.90
19970;DHT22;10146;47.754;9.566;2023-07-29T15:05:21;21.30;99.90
19970;DHT22;10146;47.754;9.566;2023-07-29T15:07:47;21.40;99.90
19970;DHT22;10146;47.754;9.566;2023-07-29T15:10:16;21.50;99.90
19970;DHT22;10146;47.754;9.566;2023-07-29T15:12:42;21.60;99.90
19970;DHT22;10146;47.754;9.566;2023-07-29T15:15:10;21.60;99.90
19970;DHT22;10146;47.754;9.566;2023-07-29T15:17:35;21.40;99.90
19970;DHT22;10146;47.754;9.566;2023-07-29T15:20:02;21.30;99.90
19970;DHT22;10146;47.754;9.566;2023-07-29T15:22:28;21.10;99.90
19970;DHT22;10146;47.754;9.566;2023-07-29T15:24:54;21.00;99.90
19970;DHT22;10146;47.754;9.566;2023-07-29T15:27:20;20.90;99.90
19970;DHT22;10146;47.754;9.566;2023-07-29T15:29:45;20.90;99.90
19970;DHT22;10146;47.754;9.566;2023-07-29T15:32:11;20.90;99.90
19970;DHT22;10146;47.754;9.566;2023-07-29T15:34:37;20.90;99.90
19970;DHT22;10146;47.754;9.566;2023-07-29T15:37:03;20.90;99.90